createdAt,value
2023-02-19T20:38:26.041Z,7.55
2023-02-19T20:43:22.236Z,7.39
2023-02-19T20:48:29.237Z,7.26
2023-02-19T20:53:35.405Z,6.81
2023-02-19T20:58:41.777Z,6.80
2023-02-19T21:03:48.028Z,9.04
2023-02-19T21:08:54.441Z,6.73
2023-02-19T21:14:00.754Z,7.09
2023-02-19T21:19:07.055Z,6.05
2023-02-19T21:24:13.318Z,5.51
2023-02-19T21:29:19.743Z,5.27
2023-02-19T21:34:25.948Z,5.25
2023-02-19T21:39:32.499Z,5.48
2023-02-19T21:44:38.761Z,4.98
2023-02-19T21:49:46.100Z,4.85
2023-02-19T21:54:52.411Z,4.36
2023-02-19T21:59:58.748Z,4.24
2023-02-19T22:05:04.913Z,4.13
2023-02-19T22:10:11.284Z,5.72
2023-02-19T22:15:17.527Z,3.87
2023-02-19T22:20:24.038Z,3.83
2023-02-19T22:25:30.335Z,4.14
2023-02-19T22:30:36.998Z,3.80
2023-02-19T22:35:43.136Z,3.49
2023-02-19T22:40:49.450Z,3.55
2023-02-19T22:45:55.784Z,3.39
2023-02-19T22:51:02.309Z,3.40
2023-02-19T22:56:08.689Z,3.22
2023-02-19T23:01:15.067Z,3.39
2023-02-19T23:06:21.143Z,2.97
2023-02-19T23:11:27.836Z,3.39
2023-02-19T23:16:34.037Z,3.16
2023-02-19T23:21:40.511Z,3.22
2023-02-19T23:26:46.685Z,3.35
2023-02-19T23:31:53.287Z,3.54
2023-02-19T23:36:59.348Z,4.02
2023-02-19T23:42:06.040Z,3.97
2023-02-19T23:47:12.352Z,4.62
2023-02-19T23:52:18.895Z,5.39
2023-02-19T23:57:25.063Z,5.09
